This is the latest recevied weather packets stored in our database for station/object EA5CH. If no packets are shown the sender has not sent any weather packets the latest 10 day(s).
| Time | Temp. | Humidity | Pressure | Rain* | Wind** | Luminosity | Snow |
|---|---|---|---|---|---|---|---|
| 1777982718 | 21.11° C | 77% | 1013.2 hPa | 0 mm | - | - | - |
| 1777982118 | 20.56° C | 78% | 1013.2 hPa | 0 mm | - | - | - |
| 1777978518 | 21.67° C | 75% | 1013.6 hPa | 0 mm | - | - | - |
| 1777977918 | 21.11° C | 77% | 1013.5 hPa | 0 mm | - | - | - |
| 1777971318 | 20° C | 82% | 1013.6 hPa | 0 mm | - | - | - |
| 1777970758 | 20.56° C | 81% | 1013.6 hPa | 0 mm | - | - | - |
| 1777970118 | 20.56° C | 80% | 1013.5 hPa | 0 mm | - | - | - |
| 1777965938 | 19.44° C | 83% | 1013.5 hPa | 0 mm | - | - | - |
| 1777965318 | 19.44° C | 83% | 1013.5 hPa | 0 mm | - | - | - |
| 1777964118 | 20° C | 83% | 1013.5 hPa | 0 mm | - | - | - |
| 1777961718 | 17.22° C | 90% | 1013 hPa | 0 mm | - | - | - |
| 1777961118 | 16.67° C | 91% | 1013 hPa | 0 mm | - | - | - |
| 1777959938 | 16.11° C | 91% | 1012.9 hPa | 0 mm | - | - | - |
| 1777959338 | 16.11° C | 91% | 1012.8 hPa | 0 mm | - | - | - |
| 1777958718 | 16.11° C | 91% | 1012.8 hPa | 0 mm | - | - | - |
| 1777958138 | 16.11° C | 91% | 1012.7 hPa | 0 mm | - | - | - |
| 1777956918 | 16.11° C | 91% | 1012.7 hPa | 0 mm | - | - | - |
| 1777952718 | 16.11° C | 89% | 1012.7 hPa | 0 mm | - | - | - |
| 1777950918 | 16.11° C | 88% | 1012.6 hPa | 0 mm | - | - | - |
| 1777946718 | 16.67° C | 89% | 1012.6 hPa | 0 mm | - | - | - |
| 1777942518 | 17.22° C | 89% | 1013.5 hPa | 0 mm | - | - | - |
| 1777937718 | 16.67° C | 91% | 1013.9 hPa | 0 mm | - | - | - |
| 1777936539 | 16.67° C | 90% | 1013.8 hPa | 0 mm | - | - | - |
| 1777934118 | 16.67° C | 89% | 1013.6 hPa | 0 mm | - | - | - |
| 1777928718 | 17.78° C | 87% | 1013.4 hPa | 0 mm | - | - | - |
* Rain latest hour (hover to see other rain measurements)
** Current wind speed in m/s (hover to see current wind gust speed)